createdAt,value
2022-07-30T00:00:03.641Z,18.36
2022-07-30T00:01:03.685Z,18.36
2022-07-30T00:02:03.611Z,18.33
2022-07-30T00:03:03.594Z,18.31
2022-07-30T00:04:03.708Z,18.31
2022-07-30T00:05:03.548Z,18.12
2022-07-30T00:06:03.546Z,18.20
2022-07-30T00:07:03.845Z,18.20
2022-07-30T00:08:03.502Z,18.13
2022-07-30T00:09:03.501Z,18.13
2022-07-30T00:10:03.490Z,18.13
2022-07-30T00:11:03.447Z,18.18
2022-07-30T00:12:03.438Z,18.20
2022-07-30T00:13:03.424Z,18.20
2022-07-30T00:14:03.401Z,18.20
2022-07-30T00:15:03.402Z,18.15
2022-07-30T00:16:03.366Z,18.15
2022-07-30T00:17:04.045Z,18.21
2022-07-30T00:18:03.327Z,18.20
2022-07-30T00:19:03.311Z,18.13
2022-07-30T00:20:03.311Z,18.09
2022-07-30T00:21:03.293Z,18.09
2022-07-30T00:22:03.258Z,18.03
2022-07-30T00:23:03.239Z,18.13
2022-07-30T00:24:03.221Z,18.08
2022-07-30T00:25:03.203Z,18.06
2022-07-30T00:26:03.206Z,18.06
2022-07-30T00:27:03.547Z,17.99
2022-07-30T00:28:03.148Z,18.03
2022-07-30T00:29:03.157Z,18.03
2022-07-30T00:30:03.121Z,17.93
2022-07-30T00:31:03.212Z,17.99
2022-07-30T00:32:03.097Z,18.01
2022-07-30T00:33:03.073Z,17.91
2022-07-30T00:34:03.061Z,17.90
2022-07-30T00:35:03.033Z,17.91
2022-07-30T00:36:03.008Z,17.86
2022-07-30T00:37:03.411Z,17.76
2022-07-30T00:38:02.981Z,17.81
2022-07-30T00:39:02.958Z,17.81
2022-07-30T00:40:02.943Z,17.81
2022-07-30T00:41:02.931Z,17.84
2022-07-30T00:42:02.906Z,17.87
2022-07-30T00:43:02.910Z,17.79
2022-07-30T00:44:02.872Z,17.87
2022-07-30T00:45:02.852Z,17.84
2022-07-30T00:46:02.919Z,17.79
2022-07-30T00:47:03.299Z,17.81
2022-07-30T00:48:02.803Z,17.83
2022-07-30T00:49:02.837Z,17.79
2022-07-30T00:50:02.769Z,17.83
2022-07-30T00:51:02.751Z,17.79
2022-07-30T00:52:02.734Z,17.79
2022-07-30T00:53:02.741Z,17.86
2022-07-30T00:54:02.715Z,17.84
2022-07-30T00:55:02.687Z,17.79
2022-07-30T00:56:02.663Z,17.87
2022-07-30T00:57:03.046Z,17.76
2022-07-30T00:58:02.644Z,17.83
2022-07-30T00:59:02.628Z,17.81
2022-07-30T01:00:02.594Z,17.81
2022-07-30T01:01:02.640Z,17.75
2022-07-30T01:02:02.637Z,17.72
2022-07-30T01:03:02.537Z,17.72
2022-07-30T01:04:02.547Z,17.59
2022-07-30T01:05:02.523Z,17.68
2022-07-30T01:06:02.487Z,17.62
2022-07-30T01:07:02.977Z,17.59
2022-07-30T01:08:02.459Z,17.63
2022-07-30T01:09:02.432Z,17.66
2022-07-30T01:10:02.444Z,17.57
2022-07-30T01:11:02.399Z,17.59
2022-07-30T01:12:02.377Z,17.57
2022-07-30T01:13:02.363Z,17.57
2022-07-30T01:14:02.345Z,17.66
2022-07-30T01:15:02.351Z,17.57
2022-07-30T01:16:02.410Z,17.62
2022-07-30T01:17:02.754Z,17.65
2022-07-30T01:18:02.276Z,17.63
2022-07-30T01:19:02.270Z,17.63
2022-07-30T01:20:02.250Z,17.62
2022-07-30T01:21:02.245Z,17.66
2022-07-30T01:22:02.206Z,17.63
2022-07-30T01:23:02.208Z,17.68
2022-07-30T01:24:02.171Z,17.59
2022-07-30T01:25:02.162Z,17.68
2022-07-30T01:26:02.156Z,17.62
2022-07-30T01:27:02.534Z,17.71
2022-07-30T01:28:02.099Z,17.66
2022-07-30T01:29:02.081Z,17.73
2022-07-30T01:30:02.065Z,17.69
2022-07-30T01:31:02.060Z,17.69
2022-07-30T01:32:02.059Z,17.81
2022-07-30T01:33:02.007Z,17.79
2022-07-30T01:34:01.994Z,17.79
2022-07-30T01:35:01.974Z,17.75
2022-07-30T01:36:01.956Z,17.83
2022-07-30T01:37:02.426Z,17.81
2022-07-30T01:38:01.955Z,17.84
2022-07-30T01:39:01.904Z,17.78
2022-07-30T01:40:01.889Z,17.81
2022-07-30T01:41:01.869Z,17.75
2022-07-30T01:42:01.849Z,17.86
2022-07-30T01:43:01.834Z,17.79
2022-07-30T01:44:01.834Z,17.84
2022-07-30T01:45:01.796Z,17.78
2022-07-30T01:46:01.815Z,17.84
2022-07-30T01:47:02.312Z,17.81
2022-07-30T01:48:01.741Z,17.81
2022-07-30T01:49:01.789Z,17.84
2022-07-30T01:50:01.758Z,17.84
2022-07-30T01:51:01.691Z,17.84
2022-07-30T01:52:01.672Z,17.83
2022-07-30T01:53:01.675Z,17.81
2022-07-30T01:54:01.656Z,17.76
2022-07-30T01:55:01.618Z,17.83
2022-07-30T01:56:01.601Z,17.81
2022-07-30T01:57:01.980Z,17.88
2022-07-30T01:58:01.570Z,17.90
2022-07-30T01:59:01.554Z,17.87
2022-07-30T02:00:01.555Z,17.91
2022-07-30T02:01:01.575Z,17.84
2022-07-30T02:02:01.508Z,17.87
2022-07-30T02:03:01.479Z,17.81
2022-07-30T02:04:01.580Z,17.86
2022-07-30T02:05:01.468Z,17.79
2022-07-30T02:06:01.463Z,17.78
2022-07-30T02:07:02.048Z,17.84
2022-07-30T02:08:01.410Z,17.81
2022-07-30T02:09:01.375Z,17.81
2022-07-30T02:10:01.362Z,17.76
2022-07-30T02:11:01.359Z,17.75
2022-07-30T02:12:01.324Z,17.68
2022-07-30T02:13:01.305Z,17.73
2022-07-30T02:14:01.280Z,17.72
2022-07-30T02:15:01.270Z,17.73
2022-07-30T02:16:01.329Z,17.68
2022-07-30T02:17:01.618Z,17.57
2022-07-30T02:18:01.213Z,17.69
2022-07-30T02:19:01.199Z,17.72
2022-07-30T02:20:01.192Z,17.65
2022-07-30T02:21:01.167Z,17.65
2022-07-30T02:22:01.157Z,17.65
2022-07-30T02:23:01.142Z,17.65
2022-07-30T02:24:01.102Z,17.68
2022-07-30T02:25:01.088Z,17.66
2022-07-30T02:26:01.068Z,17.56
2022-07-30T02:27:01.407Z,17.59
2022-07-30T02:28:01.052Z,17.63
2022-07-30T02:29:01.017Z,17.57
2022-07-30T02:30:00.996Z,17.46
2022-07-30T02:31:01.068Z,17.45
2022-07-30T02:32:00.960Z,17.46
2022-07-30T02:33:00.979Z,17.53
2022-07-30T02:34:00.942Z,17.46
2022-07-30T02:35:00.911Z,17.43
2022-07-30T02:36:00.892Z,17.46
2022-07-30T02:37:01.219Z,17.39
2022-07-30T02:38:00.855Z,17.39
2022-07-30T02:39:00.856Z,17.41
2022-07-30T02:40:00.815Z,17.45
2022-07-30T02:41:00.803Z,17.43
2022-07-30T02:42:00.785Z,17.43
2022-07-30T02:43:00.772Z,17.38
2022-07-30T02:44:00.779Z,17.34
2022-07-30T02:45:00.734Z,17.30
2022-07-30T02:46:00.716Z,17.34
2022-07-30T02:47:04.946Z,17.34
2022-07-30T02:48:00.697Z,17.30
2022-07-30T02:49:00.686Z,17.28
2022-07-30T02:50:00.643Z,17.30
2022-07-30T02:51:00.635Z,17.19
2022-07-30T02:52:00.606Z,17.20
2022-07-30T02:53:00.587Z,17.16
2022-07-30T02:54:00.574Z,17.22
2022-07-30T02:55:00.566Z,17.16
2022-07-30T02:56:00.533Z,17.17
2022-07-30T02:57:00.667Z,17.09
2022-07-30T02:58:00.500Z,17.13
2022-07-30T02:59:00.482Z,17.01
2022-07-30T03:00:00.488Z,17.02
2022-07-30T03:01:00.495Z,17.02
2022-07-30T03:02:00.455Z,16.99
2022-07-30T03:03:00.409Z,17.02
2022-07-30T03:04:00.392Z,17.01
2022-07-30T03:05:00.389Z,17.04
2022-07-30T03:06:00.366Z,17.02
2022-07-30T03:07:03.645Z,17.12
2022-07-30T03:08:00.316Z,16.98
2022-07-30T03:09:00.297Z,16.98
2022-07-30T03:10:00.283Z,17.01
2022-07-30T03:11:00.283Z,17.06
2022-07-30T03:12:00.247Z,17.02
2022-07-30T03:13:00.249Z,17.06
2022-07-30T03:14:00.211Z,16.99
2022-07-30T03:15:00.194Z,16.99
2022-07-30T03:16:00.197Z,16.99
2022-07-30T03:17:00.483Z,16.92
2022-07-30T03:18:00.159Z,16.97
2022-07-30T03:19:00.121Z,16.87
2022-07-30T03:20:00.115Z,16.83
2022-07-30T03:21:00.083Z,16.84
2022-07-30T03:22:00.097Z,16.87
2022-07-30T03:23:00.075Z,16.83
2022-07-30T03:24:00.031Z,16.80
2022-07-30T03:25:00.010Z,16.74
2022-07-30T03:25:59.996Z,16.79
2022-07-30T03:27:00.204Z,16.80
2022-07-30T03:27:59.980Z,16.69
2022-07-30T03:28:59.938Z,16.77
2022-07-30T03:29:59.924Z,16.80
2022-07-30T03:30:59.967Z,16.80
2022-07-30T03:31:59.887Z,16.79
2022-07-30T03:32:59.886Z,16.76
2022-07-30T03:33:59.857Z,16.79
2022-07-30T03:35:04.241Z,16.77
2022-07-30T03:35:59.816Z,16.61
2022-07-30T03:37:00.062Z,16.72
2022-07-30T03:37:59.777Z,16.65
2022-07-30T03:38:59.778Z,16.64
2022-07-30T03:39:59.759Z,16.59
2022-07-30T03:40:59.724Z,16.70
2022-07-30T03:41:59.710Z,16.67
2022-07-30T03:42:59.686Z,16.70
2022-07-30T03:43:59.675Z,16.62
2022-07-30T03:44:59.667Z,16.64
2022-07-30T03:45:59.635Z,16.59
2022-07-30T03:46:59.978Z,16.67
2022-07-30T03:47:59.599Z,16.65
2022-07-30T03:48:59.651Z,16.65
2022-07-30T03:49:59.580Z,16.61
2022-07-30T03:50:59.546Z,16.57
2022-07-30T03:51:59.526Z,16.55
2022-07-30T03:52:59.521Z,16.67
2022-07-30T03:53:59.486Z,16.58
2022-07-30T03:54:59.489Z,16.47
2022-07-30T03:55:59.486Z,16.44
2022-07-30T03:56:59.726Z,16.61
2022-07-30T03:57:59.411Z,16.59
2022-07-30T03:58:59.405Z,16.62
2022-07-30T03:59:59.380Z,16.58
2022-07-30T04:00:59.362Z,16.61
2022-07-30T04:01:59.425Z,16.67
2022-07-30T04:02:59.324Z,16.62
2022-07-30T04:03:59.352Z,16.69
2022-07-30T04:04:59.311Z,16.64
2022-07-30T04:05:59.266Z,16.49
2022-07-30T04:06:59.556Z,16.55
2022-07-30T04:07:59.230Z,16.47
2022-07-30T04:08:59.217Z,16.49
2022-07-30T04:09:59.193Z,16.47
2022-07-30T04:10:59.193Z,16.47
2022-07-30T04:11:59.177Z,16.47
2022-07-30T04:12:59.148Z,16.52
2022-07-30T04:13:59.126Z,16.47
2022-07-30T04:14:59.102Z,16.44
2022-07-30T04:16:05.937Z,16.47
2022-07-30T04:16:59.472Z,16.55
2022-07-30T04:17:59.071Z,16.52
2022-07-30T04:19:01.397Z,16.43
2022-07-30T04:19:59.015Z,16.43
2022-07-30T04:20:58.994Z,16.44
2022-07-30T04:21:58.981Z,16.44
2022-07-30T04:22:58.958Z,16.51
2022-07-30T04:24:03.690Z,16.42
2022-07-30T04:24:58.919Z,16.40
2022-07-30T04:25:58.931Z,16.44
2022-07-30T04:26:59.220Z,16.40
2022-07-30T04:28:03.404Z,16.40
2022-07-30T04:28:58.845Z,16.49
2022-07-30T04:29:58.846Z,16.44
2022-07-30T04:30:58.863Z,16.34
2022-07-30T04:31:58.810Z,16.43
2022-07-30T04:32:58.775Z,16.40
2022-07-30T04:34:01.093Z,16.43
2022-07-30T04:34:58.753Z,16.43
2022-07-30T04:35:58.738Z,16.44
2022-07-30T04:36:59.173Z,16.44
2022-07-30T04:37:58.683Z,16.44
2022-07-30T04:38:58.664Z,16.43
2022-07-30T04:39:58.659Z,16.58
2022-07-30T04:40:58.627Z,16.58
2022-07-30T04:41:58.606Z,16.55
2022-07-30T04:42:58.591Z,16.51
2022-07-30T04:43:58.569Z,16.62
2022-07-30T04:44:58.574Z,16.64
2022-07-30T04:45:58.692Z,16.61
2022-07-30T04:46:58.747Z,16.67
2022-07-30T04:47:58.495Z,16.69
2022-07-30T04:48:58.540Z,16.65
2022-07-30T04:49:58.468Z,16.67
2022-07-30T04:50:58.464Z,16.69
2022-07-30T04:51:58.422Z,16.64
2022-07-30T04:52:58.411Z,16.70
2022-07-30T04:53:58.392Z,16.77
2022-07-30T04:54:58.380Z,16.72
2022-07-30T04:55:58.374Z,16.87
2022-07-30T04:56:58.336Z,16.92
2022-07-30T04:57:58.316Z,16.92
2022-07-30T04:58:58.298Z,16.88
2022-07-30T04:59:58.297Z,16.88
2022-07-30T05:00:58.261Z,16.94
2022-07-30T05:01:58.283Z,16.97
2022-07-30T05:02:58.227Z,16.92
2022-07-30T05:03:58.206Z,16.99
2022-07-30T05:04:58.215Z,17.02
2022-07-30T05:05:58.186Z,16.94
2022-07-30T05:06:58.812Z,17.04
2022-07-30T05:07:58.133Z,17.02
2022-07-30T05:08:58.113Z,17.02
2022-07-30T05:09:58.099Z,17.04
2022-07-30T05:10:58.079Z,17.04
2022-07-30T05:11:58.086Z,17.01
2022-07-30T05:12:58.059Z,17.09
2022-07-30T05:13:58.030Z,17.09
2022-07-30T05:14:58.006Z,17.13
2022-07-30T05:15:58.032Z,17.04
2022-07-30T05:16:58.330Z,17.07
2022-07-30T05:17:57.954Z,17.09
2022-07-30T05:18:57.933Z,17.17
2022-07-30T05:19:57.915Z,17.20
2022-07-30T05:20:57.898Z,17.14
2022-07-30T05:21:57.897Z,17.22
2022-07-30T05:22:57.878Z,17.20
2022-07-30T05:23:57.844Z,17.20
2022-07-30T05:24:57.826Z,17.24
2022-07-30T05:25:57.807Z,17.30
2022-07-30T05:26:58.129Z,17.20
2022-07-30T05:27:57.767Z,17.20
2022-07-30T05:28:57.773Z,17.24
2022-07-30T05:29:57.745Z,17.35
2022-07-30T05:30:57.792Z,17.37
2022-07-30T05:32:02.610Z,17.45
2022-07-30T05:32:57.683Z,17.45
2022-07-30T05:34:03.481Z,17.38
2022-07-30T05:34:57.663Z,17.45
2022-07-30T05:35:57.627Z,17.37
2022-07-30T05:36:58.045Z,17.39
2022-07-30T05:37:57.669Z,17.39
2022-07-30T05:38:57.580Z,17.38
2022-07-30T05:40:03.478Z,17.41
2022-07-30T05:40:57.559Z,17.35
2022-07-30T05:41:57.519Z,17.45
2022-07-30T05:42:57.501Z,17.38
2022-07-30T05:43:57.484Z,17.41
2022-07-30T05:44:57.549Z,17.37
2022-07-30T05:45:57.499Z,17.39
2022-07-30T05:46:57.656Z,17.39
2022-07-30T05:47:57.409Z,17.45
2022-07-30T05:48:57.434Z,17.39
2022-07-30T05:50:01.488Z,17.45
2022-07-30T05:50:57.365Z,17.49
2022-07-30T05:51:57.366Z,17.45
2022-07-30T05:52:57.323Z,17.47
2022-07-30T05:53:57.301Z,17.43
2022-07-30T05:54:57.303Z,17.43
2022-07-30T05:55:57.290Z,17.39
2022-07-30T05:56:57.288Z,17.39
2022-07-30T05:57:57.251Z,17.46
2022-07-30T05:58:57.215Z,17.41
2022-07-30T05:59:57.198Z,17.46
2022-07-30T06:00:57.187Z,17.46
2022-07-30T06:01:57.234Z,17.52
2022-07-30T06:02:57.139Z,17.65
2022-07-30T06:03:57.147Z,17.59
2022-07-30T06:04:57.141Z,17.62
2022-07-30T06:05:57.125Z,17.62
2022-07-30T06:06:57.253Z,17.65
2022-07-30T06:07:57.054Z,17.66
2022-07-30T06:08:57.037Z,17.71
2022-07-30T06:09:57.022Z,17.65
2022-07-30T06:10:57.000Z,17.75
2022-07-30T06:11:57.463Z,17.79
2022-07-30T06:12:57.145Z,17.83
2022-07-30T06:13:57.983Z,17.88
2022-07-30T06:14:57.016Z,17.93
2022-07-30T06:15:57.106Z,18.02
2022-07-30T06:16:56.951Z,17.96
2022-07-30T06:18:01.358Z,18.09
2022-07-30T06:18:56.850Z,18.05
2022-07-30T06:19:56.838Z,18.17
2022-07-30T06:20:56.827Z,18.15
2022-07-30T06:22:05.379Z,18.20
2022-07-30T06:22:56.785Z,18.20
2022-07-30T06:23:56.772Z,18.13
2022-07-30T06:24:56.750Z,18.21
2022-07-30T06:25:56.735Z,18.31
2022-07-30T06:26:56.719Z,18.31
2022-07-30T06:27:56.735Z,18.30
2022-07-30T06:28:56.685Z,18.36
2022-07-30T06:29:56.662Z,18.24
2022-07-30T06:30:56.687Z,18.36
2022-07-30T06:31:56.631Z,18.41
2022-07-30T06:32:56.611Z,18.46
2022-07-30T06:33:56.634Z,18.46
2022-07-30T06:35:02.621Z,18.46
2022-07-30T06:35:56.560Z,18.48
2022-07-30T06:36:56.540Z,18.41
2022-07-30T06:38:06.694Z,18.41
2022-07-30T06:38:56.500Z,18.49
2022-07-30T06:39:58.746Z,18.51
2022-07-30T06:41:00.628Z,18.49
2022-07-30T06:41:56.451Z,18.51
2022-07-30T06:42:56.434Z,18.58
2022-07-30T06:43:56.415Z,18.56
2022-07-30T06:44:56.444Z,18.51
2022-07-30T06:45:56.461Z,18.56
2022-07-30T06:46:56.365Z,18.57
2022-07-30T06:47:56.345Z,18.60
2022-07-30T06:48:56.379Z,18.52
2022-07-30T06:49:56.317Z,18.51
2022-07-30T06:50:56.326Z,18.52
2022-07-30T06:51:56.276Z,18.49
2022-07-30T06:52:56.260Z,18.46
2022-07-30T06:53:56.243Z,18.48
2022-07-30T06:54:56.242Z,18.51
2022-07-30T06:56:00.342Z,18.56
2022-07-30T06:56:56.219Z,18.52
2022-07-30T06:58:06.019Z,18.54
2022-07-30T06:58:59.444Z,18.58
2022-07-30T06:59:57.607Z,18.52
2022-07-30T07:00:56.120Z,18.54
2022-07-30T07:01:56.154Z,18.61
2022-07-30T07:02:56.101Z,18.61
2022-07-30T07:03:56.097Z,18.70
2022-07-30T07:04:56.059Z,18.70
2022-07-30T07:05:56.033Z,18.79
2022-07-30T07:06:56.013Z,18.85
2022-07-30T07:07:59.527Z,18.88
2022-07-30T07:08:55.984Z,18.88
2022-07-30T07:09:55.961Z,18.89
2022-07-30T07:10:55.965Z,18.91
2022-07-30T07:11:55.928Z,18.88
2022-07-30T07:12:58.457Z,18.93
2022-07-30T07:13:55.916Z,18.83
2022-07-30T07:14:55.874Z,18.98
2022-07-30T07:15:55.861Z,18.94
2022-07-30T07:16:55.873Z,18.85
2022-07-30T07:17:55.830Z,18.85
2022-07-30T07:18:55.805Z,18.96
2022-07-30T07:20:01.784Z,18.91
2022-07-30T07:20:55.790Z,18.86
2022-07-30T07:21:58.454Z,18.86
2022-07-30T07:22:55.746Z,18.93
2022-07-30T07:23:55.736Z,18.94
2022-07-30T07:24:55.702Z,19.01
2022-07-30T07:25:55.700Z,18.98
2022-07-30T07:26:55.678Z,19.05
2022-07-30T07:28:10.943Z,19.15
2022-07-30T07:28:55.632Z,19.12
2022-07-30T07:30:01.348Z,19.23
2022-07-30T07:30:55.629Z,19.35
2022-07-30T07:32:06.472Z,19.38
2022-07-30T07:32:55.565Z,19.41
2022-07-30T07:33:55.546Z,19.45
2022-07-30T07:34:55.527Z,19.53
2022-07-30T07:35:55.531Z,19.62
2022-07-30T07:36:55.494Z,19.60
2022-07-30T07:37:55.479Z,19.72
2022-07-30T07:38:55.461Z,19.63
2022-07-30T07:39:55.459Z,19.63
2022-07-30T07:40:55.449Z,19.59
2022-07-30T07:41:55.427Z,19.59
2022-07-30T07:42:55.390Z,19.53
2022-07-30T07:43:55.375Z,19.67
2022-07-30T07:44:55.358Z,19.60
2022-07-30T07:45:55.371Z,19.60
2022-07-30T07:46:55.334Z,19.60
2022-07-30T07:47:55.326Z,19.63
2022-07-30T07:48:55.345Z,19.63
2022-07-30T07:49:55.272Z,19.67
2022-07-30T07:50:59.773Z,19.75
2022-07-30T07:51:55.242Z,19.67
2022-07-30T07:52:55.970Z,19.75
2022-07-30T07:54:11.903Z,19.87
2022-07-30T07:54:55.185Z,19.97
2022-07-30T07:55:55.396Z,19.99
2022-07-30T07:56:55.186Z,20.04
2022-07-30T07:57:55.140Z,20.04
2022-07-30T07:58:56.731Z,20.05
2022-07-30T07:59:55.112Z,20.15
2022-07-30T08:00:55.192Z,20.22
2022-07-30T08:01:55.127Z,20.32
2022-07-30T08:02:55.102Z,20.37
2022-07-30T08:03:55.049Z,20.36
2022-07-30T08:04:55.023Z,20.33
2022-07-30T08:06:05.743Z,20.48
2022-07-30T08:06:54.978Z,20.49
2022-07-30T08:07:54.965Z,20.52
2022-07-30T08:08:54.965Z,20.49
2022-07-30T08:09:54.930Z,20.64
2022-07-30T08:10:54.911Z,20.71
2022-07-30T08:11:54.896Z,20.75
2022-07-30T08:12:54.885Z,20.77
2022-07-30T08:13:54.920Z,20.86
2022-07-30T08:14:54.865Z,21.00
2022-07-30T08:15:54.836Z,20.97
2022-07-30T08:16:54.921Z,21.05
2022-07-30T08:17:54.804Z,21.16
2022-07-30T08:18:54.783Z,21.26
2022-07-30T08:19:54.799Z,21.26
2022-07-30T08:20:54.748Z,21.37
2022-07-30T08:21:54.723Z,21.40
2022-07-30T08:22:54.710Z,21.32
2022-07-30T08:23:54.713Z,21.45
2022-07-30T08:24:54.688Z,21.62
2022-07-30T08:25:54.664Z,21.62
2022-07-30T08:26:54.646Z,21.56
2022-07-30T08:27:54.630Z,21.60
2022-07-30T08:28:54.666Z,21.55
2022-07-30T08:29:54.598Z,21.56
2022-07-30T08:30:56.038Z,21.55
2022-07-30T08:31:57.548Z,21.38
2022-07-30T08:32:55.545Z,21.55
2022-07-30T08:33:54.565Z,21.41
2022-07-30T08:34:54.532Z,21.60
2022-07-30T08:35:59.052Z,21.74
2022-07-30T08:36:54.485Z,21.60
2022-07-30T08:37:54.483Z,21.65
2022-07-30T08:38:54.455Z,21.63
2022-07-30T08:39:54.444Z,21.66
2022-07-30T08:40:54.412Z,21.73
2022-07-30T08:41:54.403Z,21.85
2022-07-30T08:42:54.377Z,22.00
2022-07-30T08:43:54.381Z,22.01
2022-07-30T08:44:54.350Z,22.07
2022-07-30T08:45:54.341Z,22.18
2022-07-30T08:46:54.314Z,22.07
2022-07-30T08:47:54.313Z,22.21
2022-07-30T08:48:54.350Z,22.23
2022-07-30T08:49:55.027Z,22.28
2022-07-30T08:50:54.250Z,22.48
2022-07-30T08:51:54.256Z,22.46
2022-07-30T08:52:59.983Z,22.55
2022-07-30T08:53:54.221Z,22.74
2022-07-30T08:54:54.186Z,22.76
2022-07-30T08:55:58.329Z,22.89
2022-07-30T08:56:54.161Z,22.92
2022-07-30T08:57:54.144Z,23.06
2022-07-30T08:58:54.125Z,23.13
2022-07-30T09:00:00.851Z,23.15
2022-07-30T09:00:54.094Z,23.31
2022-07-30T09:01:54.100Z,23.28
2022-07-30T09:02:54.061Z,23.37
2022-07-30T09:03:54.124Z,23.48
2022-07-30T09:04:54.025Z,23.37
2022-07-30T09:05:54.056Z,23.41
2022-07-30T09:06:54.001Z,23.28
2022-07-30T09:07:53.981Z,23.36
2022-07-30T09:08:54.090Z,23.29
2022-07-30T09:09:53.988Z,23.44
2022-07-30T09:10:53.933Z,23.39
2022-07-30T09:11:53.940Z,23.23
2022-07-30T09:12:53.904Z,23.31
2022-07-30T09:13:53.885Z,23.42
2022-07-30T09:14:53.951Z,23.42
2022-07-30T09:15:53.870Z,23.45
2022-07-30T09:16:53.861Z,23.29
2022-07-30T09:17:53.942Z,23.26
2022-07-30T09:18:53.808Z,23.11
2022-07-30T09:19:53.789Z,23.34
2022-07-30T09:20:53.811Z,23.25
2022-07-30T09:21:53.773Z,23.41
2022-07-30T09:22:53.783Z,23.55
2022-07-30T09:23:53.733Z,23.70
2022-07-30T09:24:53.718Z,23.79
2022-07-30T09:25:53.719Z,23.96
2022-07-30T09:26:53.687Z,24.26
2022-07-30T09:27:53.726Z,24.52
2022-07-30T09:28:53.698Z,24.56
2022-07-30T09:29:53.659Z,24.45
2022-07-30T09:30:53.667Z,24.45
2022-07-30T09:31:53.612Z,24.41
2022-07-30T09:32:53.692Z,24.55
2022-07-30T09:33:53.689Z,24.81
2022-07-30T09:34:53.595Z,25.01
2022-07-30T09:35:53.552Z,25.28
2022-07-30T09:36:53.600Z,25.58
2022-07-30T09:37:53.576Z,25.92
2022-07-30T09:38:53.510Z,26.27
2022-07-30T09:39:59.376Z,26.56
2022-07-30T09:40:57.784Z,26.68
2022-07-30T09:41:53.522Z,26.78
2022-07-30T09:42:53.514Z,26.89
2022-07-30T09:43:53.442Z,27.22
2022-07-30T09:44:53.435Z,27.44
2022-07-30T09:45:57.006Z,27.53
2022-07-30T09:46:53.447Z,27.45
2022-07-30T09:47:53.445Z,27.38
2022-07-30T09:48:53.452Z,27.76
2022-07-30T09:49:53.450Z,28.07
2022-07-30T09:50:53.451Z,28.17
2022-07-30T09:51:56.569Z,28.31
2022-07-30T09:52:53.312Z,28.03
2022-07-30T09:53:53.300Z,27.32
2022-07-30T09:54:53.331Z,27.00
2022-07-30T09:55:53.324Z,26.85
2022-07-30T09:56:53.963Z,26.39
2022-07-30T09:57:56.573Z,26.49
2022-07-30T09:58:53.282Z,27.00
2022-07-30T09:59:53.317Z,27.22
2022-07-30T10:02:01.139Z,27.54
2022-07-30T10:02:53.299Z,27.83
2022-07-30T10:03:53.226Z,28.34
2022-07-30T10:04:53.218Z,28.50
2022-07-30T10:05:53.167Z,28.61
2022-07-30T10:06:53.211Z,28.49
2022-07-30T10:07:53.275Z,28.71
2022-07-30T10:08:53.196Z,28.94
2022-07-30T10:09:53.130Z,29.10
2022-07-30T10:10:53.114Z,29.27
2022-07-30T10:11:53.155Z,29.10
2022-07-30T10:12:53.206Z,29.09
2022-07-30T10:13:53.203Z,29.21
2022-07-30T10:14:53.086Z,29.07
2022-07-30T10:15:53.072Z,28.79
2022-07-30T10:16:53.119Z,28.71
2022-07-30T10:17:53.107Z,28.62
2022-07-30T10:18:53.153Z,28.61
2022-07-30T10:19:53.059Z,28.68
2022-07-30T10:20:53.034Z,28.62
2022-07-30T10:21:53.021Z,28.54
2022-07-30T10:22:53.078Z,28.42
2022-07-30T10:23:53.118Z,28.07
2022-07-30T10:24:52.999Z,27.64
2022-07-30T10:25:55.297Z,26.98
2022-07-30T10:26:52.978Z,27.03
2022-07-30T10:27:57.780Z,26.94
2022-07-30T10:28:53.034Z,26.86
2022-07-30T10:29:52.997Z,26.27
2022-07-30T10:30:52.964Z,26.24
2022-07-30T10:31:54.368Z,26.57
2022-07-30T10:32:52.929Z,26.88
2022-07-30T10:33:52.918Z,27.00
2022-07-30T10:34:52.907Z,27.42
2022-07-30T10:35:52.896Z,27.73
2022-07-30T10:36:53.784Z,27.85
2022-07-30T10:37:52.880Z,28.09
2022-07-30T10:38:53.142Z,28.07
2022-07-30T10:39:52.862Z,27.85
2022-07-30T10:40:52.854Z,27.76
2022-07-30T10:41:54.135Z,27.40
2022-07-30T10:42:52.839Z,27.05
2022-07-30T10:43:52.833Z,27.13
2022-07-30T10:44:52.815Z,27.52
2022-07-30T10:45:52.820Z,27.87
2022-07-30T10:46:52.820Z,28.22
2022-07-30T10:47:52.821Z,28.44
2022-07-30T10:48:52.808Z,28.30
2022-07-30T10:49:52.798Z,28.56
2022-07-30T10:50:52.770Z,28.69
2022-07-30T10:51:52.763Z,29.13
2022-07-30T10:52:52.770Z,29.22
2022-07-30T10:55:38.968Z,28.66
2022-07-30T10:56:34.983Z,28.46
2022-07-30T10:57:41.305Z,28.17
2022-07-30T10:58:34.986Z,28.28
2022-07-30T10:59:34.957Z,28.54
2022-07-30T11:00:34.991Z,28.64
2022-07-30T11:01:34.942Z,28.75
2022-07-30T11:02:34.969Z,28.94
2022-07-30T11:03:41.357Z,28.34
2022-07-30T11:04:34.960Z,27.97
2022-07-30T11:05:45.087Z,27.80
2022-07-30T11:06:34.900Z,27.85
2022-07-30T11:07:34.890Z,28.13
2022-07-30T11:08:35.950Z,28.50
2022-07-30T11:09:34.878Z,28.66
2022-07-30T11:10:34.874Z,28.71
2022-07-30T11:12:04.860Z,28.86
2022-07-30T11:12:34.852Z,28.72
2022-07-30T11:13:36.255Z,28.69
2022-07-30T11:14:34.857Z,28.38
2022-07-30T11:15:34.849Z,28.54
2022-07-30T11:16:34.877Z,28.69
2022-07-30T11:17:34.816Z,29.06
2022-07-30T11:18:34.807Z,28.87
2022-07-30T11:19:54.937Z,28.22
2022-07-30T11:20:34.788Z,28.19
2022-07-30T11:21:34.824Z,28.07
2022-07-30T11:22:34.769Z,28.05
2022-07-30T11:23:35.670Z,27.76
2022-07-30T11:24:34.750Z,27.68
2022-07-30T11:25:50.375Z,27.75
2022-07-30T11:26:34.756Z,27.97
2022-07-30T11:27:36.118Z,28.06
2022-07-30T11:28:34.729Z,28.40
2022-07-30T11:29:34.715Z,28.06
2022-07-30T11:30:34.721Z,28.06
2022-07-30T11:31:54.786Z,28.53
2022-07-30T11:32:34.696Z,28.69
2022-07-30T11:33:34.690Z,28.75
2022-07-30T11:34:34.681Z,28.98
2022-07-30T11:35:35.616Z,29.28
2022-07-30T11:36:34.656Z,29.44
2022-07-30T11:37:34.643Z,29.56
2022-07-30T11:38:34.659Z,29.56
2022-07-30T11:39:39.450Z,29.47
2022-07-30T11:40:34.628Z,29.62
2022-07-30T11:41:34.610Z,29.58
2022-07-30T11:42:34.603Z,29.68
2022-07-30T11:43:36.663Z,29.47
2022-07-30T11:44:34.590Z,29.22
2022-07-30T11:45:34.579Z,28.91
2022-07-30T11:46:34.588Z,28.87
2022-07-30T11:47:34.570Z,28.59
2022-07-30T11:48:34.606Z,28.30
2022-07-30T11:49:34.548Z,28.07
2022-07-30T11:50:34.540Z,27.97
2022-07-30T11:51:34.533Z,27.88
2022-07-30T11:52:34.522Z,28.15
2022-07-30T11:53:34.729Z,28.27
2022-07-30T11:54:34.530Z,28.61
2022-07-30T11:55:34.524Z,28.65
2022-07-30T11:56:34.490Z,28.87
2022-07-30T11:57:38.476Z,28.72
2022-07-30T11:58:34.475Z,29.09
2022-07-30T11:59:34.471Z,29.29
2022-07-30T12:00:34.461Z,29.56
2022-07-30T12:01:34.472Z,29.65
2022-07-30T12:02:34.447Z,29.70
2022-07-30T12:03:34.440Z,29.66
2022-07-30T12:04:34.433Z,29.28
2022-07-30T12:05:34.420Z,28.62
2022-07-30T12:06:34.426Z,28.40
2022-07-30T12:07:34.408Z,28.65
2022-07-30T12:08:36.314Z,28.81
2022-07-30T12:09:34.392Z,28.93
2022-07-30T12:10:34.381Z,29.09
2022-07-30T12:11:34.395Z,29.06
2022-07-30T12:12:34.374Z,29.28
2022-07-30T12:13:43.819Z,29.49
2022-07-30T12:14:34.375Z,29.77
2022-07-30T12:15:34.342Z,30.02
2022-07-30T12:16:34.339Z,30.28
2022-07-30T12:17:34.349Z,30.45
2022-07-30T12:18:34.329Z,30.64
2022-07-30T12:19:47.268Z,30.82
2022-07-30T12:20:38.587Z,30.55
2022-07-30T12:21:35.134Z,30.49
2022-07-30T12:22:34.320Z,30.62
2022-07-30T12:23:34.286Z,30.60
2022-07-30T12:24:34.274Z,30.85
2022-07-30T12:25:34.271Z,30.97
2022-07-30T12:26:34.443Z,31.05
2022-07-30T12:27:34.272Z,30.92
2022-07-30T12:28:34.258Z,30.89
2022-07-30T12:29:34.235Z,30.80
2022-07-30T12:30:34.229Z,30.86
2022-07-30T12:31:34.215Z,30.56
2022-07-30T12:32:34.225Z,30.24
2022-07-30T12:33:34.204Z,30.33
2022-07-30T12:34:34.198Z,30.33
2022-07-30T12:35:34.185Z,30.51
2022-07-30T12:36:34.179Z,30.45
2022-07-30T12:37:34.222Z,30.17
2022-07-30T12:38:34.170Z,30.21
2022-07-30T12:39:34.159Z,30.30
2022-07-30T12:40:34.172Z,30.83
2022-07-30T12:41:34.142Z,31.02
2022-07-30T12:42:34.132Z,31.15
2022-07-30T12:43:34.143Z,30.96
2022-07-30T12:44:34.118Z,31.11
2022-07-30T12:45:51.765Z,31.29
2022-07-30T12:46:34.107Z,31.52
2022-07-30T12:47:34.099Z,31.84
2022-07-30T12:48:34.093Z,32.04
2022-07-30T12:49:37.799Z,32.33
2022-07-30T12:50:34.093Z,32.23
2022-07-30T12:51:34.069Z,32.01
2022-07-30T12:52:34.662Z,31.97
2022-07-30T12:53:34.050Z,31.91
2022-07-30T12:54:34.057Z,31.78